createdAt,value
2023-05-08T00:00:49.996Z,11.80
2023-05-08T00:06:11.442Z,8.80
2023-05-08T00:11:33.628Z,7.20
2023-05-08T00:16:55.554Z,6.30
2023-05-08T00:22:17.464Z,3.50
2023-05-08T00:27:39.518Z,2.90
2023-05-08T00:33:00.925Z,3.00
2023-05-08T00:38:22.784Z,3.80
2023-05-08T00:43:46.092Z,3.20
2023-05-08T00:49:10.522Z,4.50
2023-05-08T00:54:32.433Z,4.60
2023-05-08T00:59:57.645Z,5.30
2023-05-08T01:05:19.299Z,4.10
2023-05-08T01:10:51.585Z,3.90
2023-05-08T01:16:16.602Z,2.90
2023-05-08T01:21:46.856Z,2.80
2023-05-08T01:27:39.207Z,3.70
2023-05-08T01:33:03.729Z,3.70
2023-05-08T01:38:39.156Z,2.90
2023-05-08T01:44:06.864Z,10.70
2023-05-08T01:49:44.663Z,4.70
2023-05-08T01:55:10.570Z,5.20
2023-05-08T02:00:33.943Z,4.90
2023-05-08T02:05:56.758Z,4.50
2023-05-08T02:11:19.769Z,5.00
2023-05-08T02:16:43.190Z,6.20
2023-05-08T02:22:09.191Z,6.40
2023-05-08T02:27:33.824Z,7.40
2023-05-08T02:32:56.603Z,5.60
2023-05-08T02:38:21.034Z,6.10
2023-05-08T02:43:43.088Z,6.40
2023-05-08T02:49:09.739Z,6.00
2023-05-08T02:54:47.308Z,5.80
2023-05-08T03:00:24.021Z,7.70
2023-05-08T03:05:53.475Z,6.80
2023-05-08T03:11:20.119Z,7.10
2023-05-08T03:16:43.127Z,6.00
2023-05-08T03:22:08.283Z,4.60
2023-05-08T03:27:30.722Z,5.60
2023-05-08T03:32:53.431Z,4.40
2023-05-08T03:38:15.457Z,5.00
2023-05-08T03:43:37.603Z,5.50
2023-05-08T03:49:03.167Z,8.30
2023-05-08T03:54:26.870Z,6.20
2023-05-08T03:59:51.914Z,6.70
2023-05-08T04:05:21.548Z,8.30
2023-05-08T04:10:51.357Z,7.80
2023-05-08T04:16:19.491Z,5.80
2023-05-08T04:21:43.598Z,7.80
2023-05-08T04:27:08.247Z,6.80
2023-05-08T04:32:30.504Z,5.80
2023-05-08T04:37:53.986Z,4.90
2023-05-08T04:43:15.762Z,6.50
2023-05-08T04:48:38.580Z,5.20
2023-05-08T04:54:01.657Z,7.10
2023-05-08T04:59:25.199Z,4.60
2023-05-08T05:04:47.631Z,8.60
2023-05-08T05:10:10.784Z,5.30
2023-05-08T05:15:32.275Z,3.50
2023-05-08T05:20:54.336Z,6.00
2023-05-08T05:26:16.622Z,6.80
2023-05-08T05:31:39.059Z,5.40
2023-05-08T05:37:01.457Z,5.80
2023-05-08T05:42:23.374Z,5.40
2023-05-08T05:47:50.123Z,5.00
2023-05-08T05:53:15.534Z,6.00
2023-05-08T05:58:41.090Z,3.90
2023-05-08T06:04:04.723Z,7.00
2023-05-08T06:09:27.999Z,6.70
2023-05-08T06:14:52.002Z,6.20
2023-05-08T06:20:14.605Z,10.00
2023-05-08T06:25:36.348Z,4.40
2023-05-08T06:30:58.016Z,8.50
2023-05-08T06:36:20.986Z,8.80
2023-05-08T06:41:42.847Z,10.40
2023-05-08T06:47:04.955Z,8.10
2023-05-08T06:52:27.003Z,6.70
2023-05-08T06:57:48.637Z,5.90
2023-05-08T07:03:10.634Z,6.70
2023-05-08T07:08:33.817Z,5.60
2023-05-08T07:13:55.553Z,7.30
2023-05-08T07:19:17.504Z,6.00
2023-05-08T07:24:39.354Z,6.00
2023-05-08T07:30:04.369Z,6.60
2023-05-08T07:35:27.606Z,6.50
2023-05-08T07:40:51.586Z,9.00
2023-05-08T07:46:17.604Z,8.20
2023-05-08T07:51:40.330Z,9.10
2023-05-08T07:57:01.793Z,4.60
2023-05-08T08:02:23.800Z,5.50
2023-05-08T08:07:45.754Z,5.00
2023-05-08T08:13:07.892Z,6.20
2023-05-08T08:18:30.920Z,8.50
2023-05-08T08:23:52.660Z,9.50
2023-05-08T08:29:14.377Z,11.10
2023-05-08T08:34:36.502Z,11.60
2023-05-08T08:39:58.244Z,17.10
2023-05-08T08:45:19.962Z,10.90
2023-05-08T08:50:47.711Z,12.50
2023-05-08T08:56:10.076Z,9.10
2023-05-08T09:01:39.674Z,7.30
2023-05-08T09:07:05.456Z,6.30
2023-05-08T09:12:27.479Z,4.50
2023-05-08T09:17:49.328Z,8.50
2023-05-08T09:23:11.558Z,7.10
2023-05-08T09:28:33.295Z,8.90
2023-05-08T09:33:55.292Z,8.60
2023-05-08T09:39:23.288Z,8.60
2023-05-08T09:44:51.731Z,6.40
2023-05-08T09:55:48.109Z,11.90
2023-05-08T10:01:33.454Z,8.10
2023-05-08T10:06:58.895Z,9.60
2023-05-08T10:12:21.479Z,8.10
2023-05-08T10:18:15.936Z,9.90
2023-05-08T10:23:37.988Z,13.80
2023-05-08T10:29:08.715Z,6.10
2023-05-08T10:34:32.570Z,7.20
2023-05-08T10:39:58.319Z,9.70
2023-05-08T10:45:19.750Z,11.10
2023-05-08T10:50:49.890Z,9.60
2023-05-08T10:56:12.009Z,5.90
2023-05-08T11:01:33.867Z,7.70
2023-05-08T11:06:55.966Z,9.60
2023-05-08T11:12:24.406Z,11.70
2023-05-08T11:17:53.814Z,7.20
2023-05-08T11:23:23.102Z,9.20
2023-05-08T11:28:54.475Z,8.00
2023-05-08T11:34:55.658Z,8.00
2023-05-08T11:40:58.522Z,6.40
2023-05-08T11:46:41.670Z,5.50
2023-05-08T11:52:06.168Z,8.00
2023-05-08T11:57:30.680Z,12.00
2023-05-08T12:02:52.701Z,9.10
2023-05-08T12:08:16.475Z,8.50
2023-05-08T12:13:39.412Z,7.60
2023-05-08T12:19:01.143Z,11.40
2023-05-08T12:24:23.744Z,14.80
2023-05-08T12:29:46.920Z,9.70
2023-05-08T12:35:09.744Z,16.50
2023-05-08T12:40:34.028Z,10.90
2023-05-08T12:45:55.803Z,6.40
2023-05-08T12:51:17.539Z,6.30
2023-05-08T12:56:44.888Z,7.50
2023-05-08T13:02:34.441Z,5.00
2023-05-08T13:08:02.153Z,5.80
2023-05-08T13:13:26.220Z,6.20
2023-05-08T13:18:49.436Z,12.20
2023-05-08T13:24:10.929Z,11.90
2023-05-08T13:29:32.583Z,4.00
2023-05-08T13:34:57.569Z,9.70
2023-05-08T13:40:21.603Z,5.20
2023-05-08T13:45:43.332Z,6.60
2023-05-08T13:51:05.722Z,5.30
2023-05-08T13:56:27.347Z,6.90
2023-05-08T14:01:49.397Z,5.60
2023-05-08T14:07:11.627Z,9.30
2023-05-08T14:12:36.487Z,8.60
2023-05-08T14:17:58.495Z,14.80
2023-05-08T14:23:22.026Z,11.80
2023-05-08T14:28:44.946Z,11.30
2023-05-08T14:34:06.371Z,8.60
2023-05-08T14:39:29.811Z,6.30
2023-05-08T14:44:51.857Z,11.20
2023-05-08T14:50:13.463Z,10.30
2023-05-08T14:55:35.462Z,10.70
2023-05-08T15:00:57.329Z,8.10
2023-05-08T15:06:21.368Z,9.60
2023-05-08T15:11:43.281Z,11.40
2023-05-08T15:17:05.126Z,7.10
2023-05-08T15:22:28.267Z,8.10
2023-05-08T15:27:52.917Z,7.50
2023-05-08T15:33:15.156Z,5.80
2023-05-08T15:38:36.952Z,12.80
2023-05-08T15:43:58.933Z,15.60
2023-05-08T15:49:25.839Z,13.30
2023-05-08T15:54:47.560Z,10.70
2023-05-08T16:00:11.310Z,7.80
2023-05-08T16:05:32.949Z,7.10
2023-05-08T16:10:55.057Z,7.20
2023-05-08T16:16:17.116Z,5.80
2023-05-08T16:21:42.226Z,13.10
2023-05-08T16:27:04.056Z,5.50
2023-05-08T16:32:30.268Z,18.10
2023-05-08T16:37:52.799Z,10.00
2023-05-08T16:43:14.970Z,11.20
2023-05-08T16:48:36.635Z,14.60
2023-05-08T16:53:59.581Z,12.80
2023-05-08T16:59:21.356Z,8.90
2023-05-08T17:04:43.141Z,7.50
2023-05-08T17:10:05.409Z,7.30
2023-05-08T17:15:27.402Z,10.50
2023-05-08T17:20:49.171Z,20.00
2023-05-08T17:26:10.893Z,14.90
2023-05-08T17:31:32.838Z,17.70
2023-05-08T17:36:55.237Z,21.50
2023-05-08T17:42:16.880Z,17.90
2023-05-08T17:47:40.265Z,14.40
2023-05-08T17:53:01.907Z,13.30
2023-05-08T17:58:24.282Z,10.80
2023-05-08T18:03:46.306Z,10.70
2023-05-08T18:09:11.296Z,11.50
2023-05-08T18:14:33.881Z,13.60
2023-05-08T18:19:55.623Z,15.10
2023-05-08T18:25:17.438Z,14.80
2023-05-08T18:30:40.401Z,19.50
2023-05-08T18:36:04.272Z,24.40
2023-05-08T18:41:27.476Z,33.00
2023-05-08T18:46:50.271Z,38.00
2023-05-08T18:52:14.228Z,40.50
2023-05-08T18:57:35.962Z,61.70
2023-05-08T19:02:59.396Z,43.70
2023-05-08T19:08:21.200Z,40.30
2023-05-08T19:13:43.428Z,40.00
2023-05-08T19:19:07.867Z,46.50
2023-05-08T19:24:30.966Z,42.60
2023-05-08T19:29:52.831Z,44.00
2023-05-08T19:35:14.538Z,47.40
2023-05-08T19:40:48.071Z,36.50
2023-05-08T19:46:18.499Z,38.60
2023-05-08T19:51:40.817Z,45.00
2023-05-08T19:57:02.758Z,43.10
2023-05-08T20:02:24.723Z,42.10
2023-05-08T20:07:46.605Z,42.60
2023-05-08T20:13:08.743Z,36.70
2023-05-08T20:18:34.177Z,47.40
2023-05-08T20:23:56.204Z,36.60
2023-05-08T20:29:17.908Z,36.10
2023-05-08T20:34:41.066Z,32.90
2023-05-08T20:40:07.008Z,30.50
2023-05-08T20:45:29.105Z,36.00
2023-05-08T20:50:51.365Z,29.90
2023-05-08T20:56:18.878Z,28.30
2023-05-08T21:01:41.070Z,27.60
2023-05-08T21:07:05.997Z,26.60
2023-05-08T21:12:27.517Z,25.00
2023-05-08T21:17:50.806Z,23.80
2023-05-08T21:23:12.791Z,24.30
2023-05-08T21:28:34.625Z,27.40
2023-05-08T21:33:56.646Z,26.60
2023-05-08T21:39:18.882Z,23.00
2023-05-08T21:44:41.110Z,26.10
2023-05-08T21:50:03.138Z,31.10
2023-05-08T21:55:25.141Z,41.80
2023-05-08T22:00:47.094Z,48.60
2023-05-08T22:06:09.225Z,43.90
2023-05-08T22:11:31.718Z,38.20
2023-05-08T22:16:53.373Z,38.90
2023-05-08T22:22:15.514Z,46.70
2023-05-08T22:27:37.459Z,43.60
2023-05-08T22:33:00.302Z,45.40
2023-05-08T22:38:22.127Z,41.00
2023-05-08T22:43:44.950Z,46.00
2023-05-08T22:49:06.676Z,45.80
2023-05-08T22:54:28.490Z,49.30
2023-05-08T22:59:50.333Z,45.80
2023-05-08T23:05:12.197Z,42.00
2023-05-08T23:10:34.181Z,41.00
2023-05-08T23:15:55.906Z,36.30
2023-05-08T23:21:17.605Z,35.80
2023-05-08T23:26:41.948Z,32.60
2023-05-08T23:32:04.149Z,33.20
2023-05-08T23:37:26.138Z,27.00
2023-05-08T23:42:52.278Z,24.80
2023-05-08T23:48:14.010Z,27.20
2023-05-08T23:53:35.938Z,23.60
2023-05-08T23:58:57.741Z,20.50
